Time;durP1;ratioP1;P1;durP2;ratioP2;P2;SDS_P1;SDS_P2;PMS_P1;PMS_P2;Temp;Humidity;BMP_temperature;BMP_pressure;BME280_temperature;BME280_humidity;BME280_pressure;Samples;Min_cycle;Max_cycle;Signal;HPM_P1;HPM_P2
2024/04/01 00:00:39;;;;;;;9.80;4.03;;;11.10;99.90;;;;;;5053144;28;20489;-50
2024/04/01 00:03:05;;;;;;;5.50;2.80;;;11.10;99.90;;;;;;5053113;28;20069;-52
2024/04/01 00:05:30;;;;;;;6.47;2.80;;;11.10;99.90;;;;;;5053232;28;20037;-50
2024/04/01 00:07:56;;;;;;;4.43;3.03;;;11.00;99.90;;;;;;5053021;28;20397;-52
2024/04/01 00:10:23;;;;;;;17.75;3.85;;;10.90;99.90;;;;;;5053041;28;20511;-49
2024/04/01 00:12:48;;;;;;;6.97;3.20;;;10.90;99.90;;;;;;5052649;28;20052;-65
2024/04/01 00:15:16;;;;;;;10.27;3.00;;;10.90;99.90;;;;;;5052759;28;20059;-51
2024/04/01 00:17:45;;;;;;;6.22;3.42;;;10.90;99.90;;;;;;5052926;28;20481;-52
2024/04/01 00:20:11;;;;;;;4.22;2.72;;;10.80;99.90;;;;;;5052479;28;20485;-52
2024/04/01 00:22:37;;;;;;;3.75;2.95;;;10.80;99.90;;;;;;5056492;28;20103;-52
2024/04/01 00:25:03;;;;;;;6.13;3.28;;;10.80;99.90;;;;;;5053186;28;20037;-50
2024/04/01 00:27:29;;;;;;;8.90;3.17;;;10.80;99.90;;;;;;5051189;28;20025;-51
2024/04/01 00:29:54;;;;;;;6.30;3.20;;;10.80;99.90;;;;;;5052185;28;20036;-48
2024/04/01 00:32:20;;;;;;;6.47;3.00;;;10.90;99.90;;;;;;5046358;28;20044;-52
2024/04/01 00:34:46;;;;;;;3.72;2.97;;;10.80;99.90;;;;;;5052490;28;20025;-50
2024/04/01 00:37:12;;;;;;;7.05;3.80;;;10.80;99.90;;;;;;5052376;28;20029;-50
2024/04/01 00:39:38;;;;;;;8.45;3.38;;;10.80;99.90;;;;;;5052365;28;20036;-52
2024/04/01 00:42:04;;;;;;;11.52;3.40;;;10.80;99.90;;;;;;5052167;28;20028;-52
2024/04/01 00:44:30;;;;;;;10.35;2.95;;;10.70;99.90;;;;;;5052436;28;20029;-35
2024/04/01 00:46:56;;;;;;;9.20;3.47;;;10.70;99.90;;;;;;5052379;28;20036;-35
2024/04/01 00:49:22;;;;;;;3.38;2.47;;;10.60;99.90;;;;;;5051950;28;20040;-36
2024/04/01 00:51:48;;;;;;;4.88;3.17;;;10.60;99.90;;;;;;5052222;28;20092;-36
2024/04/01 00:54:15;;;;;;;7.18;3.70;;;10.60;99.90;;;;;;5052108;28;20075;-36
2024/04/01 00:56:45;;;;;;;3.10;2.65;;;10.60;99.90;;;;;;5052201;28;20017;-36
2024/04/01 00:59:13;;;;;;;9.27;3.25;;;10.60;99.90;;;;;;5051790;28;20025;-37
2024/04/01 01:01:39;;;;;;;4.45;3.05;;;10.70;99.90;;;;;;5052213;28;20021;-35
2024/04/01 01:04:05;;;;;;;3.92;3.00;;;10.60;99.90;;;;;;5051353;28;20028;-35
2024/04/01 01:06:32;;;;;;;8.90;3.40;;;10.50;99.90;;;;;;5051916;28;20496;-35
2024/04/01 01:08:58;;;;;;;5.65;2.83;;;10.50;99.90;;;;;;5051990;28;20496;-35
2024/04/01 01:11:24;;;;;;;5.80;2.88;;;10.40;99.90;;;;;;5051977;28;20492;-35
2024/04/01 01:13:50;;;;;;;9.07;3.50;;;10.40;99.90;;;;;;5052081;28;20024;-36
2024/04/01 01:16:16;;;;;;;6.82;3.13;;;10.30;99.90;;;;;;5052006;28;20096;-35
2024/04/01 01:18:41;;;;;;;4.65;2.70;;;10.30;99.90;;;;;;5052028;28;20031;-35
2024/04/01 01:21:08;;;;;;;8.25;3.13;;;10.30;99.90;;;;;;5051906;28;20032;-43
2024/04/01 01:23:34;;;;;;;4.43;2.85;;;10.20;99.90;;;;;;5050551;28;20025;-35
2024/04/01 01:26:00;;;;;;;5.32;3.13;;;10.20;99.90;;;;;;5052136;28;20377;-34
2024/04/01 01:28:26;;;;;;;4.18;2.40;;;10.20;99.90;;;;;;5051892;28;20112;-36
2024/04/01 01:30:52;;;;;;;3.45;2.47;;;10.20;99.90;;;;;;5051650;28;20489;-35
2024/04/01 01:33:18;;;;;;;6.47;2.58;;;10.20;99.90;;;;;;5051850;28;20021;-35
2024/04/01 01:35:44;;;;;;;4.22;2.67;;;10.20;99.90;;;;;;5051853;28;20024;-35
2024/04/01 01:38:12;;;;;;;3.28;2.25;;;10.20;99.90;;;;;;5051862;28;20116;-36
2024/04/01 01:40:39;;;;;;;4.75;2.58;;;10.20;99.90;;;;;;5051751;28;20079;-34
2024/04/01 01:43:04;;;;;;;6.50;2.35;;;10.20;99.90;;;;;;5052473;28;20516;-36
2024/04/01 01:45:30;;;;;;;11.30;2.97;;;10.20;99.90;;;;;;5055798;28;20021;-35
2024/04/01 01:47:56;;;;;;;3.67;2.88;;;10.20;99.90;;;;;;5054110;28;20017;-35
2024/04/01 01:50:21;;;;;;;4.72;3.03;;;10.20;99.90;;;;;;5055201;28;20389;-35
2024/04/01 01:52:47;;;;;;;5.45;2.72;;;10.20;99.90;;;;;;5055438;28;20478;-37
2024/04/01 01:55:13;;;;;;;6.88;3.42;;;10.20;99.90;;;;;;5055244;28;20075;-36
2024/04/01 01:57:38;;;;;;;4.28;3.30;;;10.20;99.90;;;;;;5055450;28;20024;-35
2024/04/01 02:00:06;;;;;;;9.13;2.70;;;10.20;99.90;;;;;;5055262;28;20069;-36
2024/04/01 02:02:34;;;;;;;2.83;2.30;;;10.10;99.90;;;;;;5055593;28;20577;-53
2024/04/01 02:05:00;;;;;;;5.28;3.13;;;10.10;99.90;;;;;;5055081;28;20040;-51
2024/04/01 02:07:25;;;;;;;3.28;2.78;;;10.00;99.90;;;;;;5055097;28;20037;-36
2024/04/01 02:09:51;;;;;;;9.23;3.17;;;10.00;99.90;;;;;;5054958;28;20029;-36
2024/04/01 02:12:17;;;;;;;4.63;3.20;;;9.90;99.90;;;;;;5055203;28;20500;-35
2024/04/01 02:14:46;;;;;;;4.18;2.50;;;10.00;99.90;;;;;;5054995;28;20100;-57
2024/04/01 02:17:12;;;;;;;2.60;2.40;;;9.90;99.90;;;;;;5055009;28;20120;-52
2024/04/01 02:19:38;;;;;;;2.55;2.35;;;9.90;99.90;;;;;;5054901;28;20095;-51
2024/04/01 02:22:03;;;;;;;2.97;2.30;;;9.90;99.90;;;;;;5054904;28;20033;-51
2024/04/01 02:24:29;;;;;;;3.65;2.70;;;9.90;99.90;;;;;;5054904;28;20532;-50
2024/04/01 02:26:55;;;;;;;2.83;2.33;;;9.90;99.90;;;;;;5054937;28;20029;-48
2024/04/01 02:29:22;;;;;;;10.40;2.85;;;10.00;99.90;;;;;;5054496;28;20037;-51
2024/04/01 02:31:48;;;;;;;3.55;2.42;;;9.90;99.90;;;;;;5054977;28;20147;-52
2024/04/01 02:34:13;;;;;;;4.00;2.15;;;10.00;99.90;;;;;;5054791;28;20029;-52
2024/04/01 02:36:39;;;;;;;2.65;2.15;;;10.00;99.90;;;;;;5054634;28;20036;-54
2024/04/01 02:39:05;;;;;;;3.75;2.08;;;10.00;99.90;;;;;;5053156;28;20025;-52
2024/04/01 02:41:31;;;;;;;4.65;2.28;;;10.00;99.90;;;;;;5053140;28;20036;-52
2024/04/01 02:43:57;;;;;;;3.25;2.10;;;10.00;99.90;;;;;;5053241;28;20033;-50
2024/04/01 02:46:23;;;;;;;5.63;2.70;;;10.00;99.90;;;;;;5054390;28;20033;-52
2024/04/01 02:48:48;;;;;;;5.20;1.95;;;10.00;99.90;;;;;;5054431;28;20099;-51
2024/04/01 02:51:14;;;;;;;6.63;2.28;;;10.00;99.90;;;;;;5054366;28;20021;-51
2024/04/01 02:53:47;;;;;;;2.08;1.90;;;10.00;99.90;;;;;;5054287;28;20029;-35
2024/04/01 02:56:13;;;;;;;8.82;1.90;;;10.00;99.90;;;;;;5054557;28;20381;-35
2024/04/01 02:58:40;;;;;;;2.85;2.20;;;10.00;99.90;;;;;;5054215;28;20104;-35
2024/04/01 03:01:07;;;;;;;2.00;1.60;;;10.00;99.90;;;;;;5053026;28;20064;-50
2024/04/01 03:03:33;;;;;;;2.33;1.58;;;10.10;99.90;;;;;;5052763;28;20503;-51
2024/04/01 03:05:59;;;;;;;4.53;2.45;;;10.10;99.90;;;;;;5054157;28;20025;-35
2024/04/01 03:08:25;;;;;;;3.22;1.70;;;10.10;99.90;;;;;;5054137;28;20392;-35
2024/04/01 03:10:58;;;;;;;3.78;1.88;;;10.10;99.90;;;;;;5054167;28;20037;-37
2024/04/01 03:13:24;;;;;;;2.90;1.60;;;10.10;99.90;;;;;;5054140;28;20385;-35
2024/04/01 03:15:49;;;;;;;2.58;1.70;;;10.00;99.90;;;;;;5054109;28;20475;-35
2024/04/01 03:18:15;;;;;;;1.63;1.50;;;10.10;99.90;;;;;;5053969;28;20056;-36
2024/04/01 03:20:41;;;;;;;2.63;1.75;;;10.10;99.90;;;;;;5033845;28;20526;-35
2024/04/01 03:23:07;;;;;;;2.10;1.70;;;10.10;99.90;;;;;;5033886;28;20474;-35
2024/04/01 03:25:32;;;;;;;2.58;1.73;;;10.10;99.90;;;;;;5034006;28;20030;-36
2024/04/01 03:27:58;;;;;;;2.33;1.77;;;10.10;99.90;;;;;;5033821;28;20124;-37
2024/04/01 03:30:24;;;;;;;2.38;1.70;;;10.10;99.90;;;;;;5047214;28;20029;-35
2024/04/01 03:32:49;;;;;;;5.40;1.48;;;10.10;99.90;;;;;;5053655;28;20024;-34
2024/04/01 03:35:16;;;;;;;4.10;1.90;;;10.00;99.90;;;;;;5053438;28;20465;-35
2024/04/01 03:37:41;;;;;;;3.90;1.98;;;10.00;99.90;;;;;;5033803;28;20026;-35
2024/04/01 03:40:11;;;;;;;2.45;2.10;;;10.00;99.90;;;;;;5039017;28;20389;-34
2024/04/01 03:42:36;;;;;;;2.28;2.08;;;10.00;99.90;;;;;;5053580;28;20036;-51
2024/04/01 03:45:06;;;;;;;2.40;1.55;;;10.00;99.90;;;;;;5053402;28;20370;-51
2024/04/01 03:47:32;;;;;;;2.97;2.13;;;10.00;99.90;;;;;;5043016;28;20456;-51
2024/04/01 03:49:58;;;;;;;2.10;1.90;;;10.00;99.90;;;;;;5053387;28;20501;-52
2024/04/01 03:52:24;;;;;;;4.32;2.63;;;10.00;99.90;;;;;;5052929;28;20017;-49
2024/04/01 03:54:49;;;;;;;3.25;1.77;;;10.00;99.90;;;;;;5053004;28;20108;-51
2024/04/01 03:57:16;;;;;;;4.18;2.65;;;10.00;99.90;;;;;;5052233;28;20025;-52
2024/04/01 03:59:42;;;;;;;4.97;2.55;;;10.00;99.90;;;;;;5052844;28;20414;-52
2024/04/01 04:02:07;;;;;;;2.88;2.30;;;10.10;99.90;;;;;;5053378;28;20115;-51
2024/04/01 04:04:34;;;;;;;2.92;2.63;;;10.10;99.90;;;;;;5052914;28;20051;-35
2024/04/01 04:07:00;;;;;;;3.33;2.45;;;10.00;99.90;;;;;;5052345;28;20029;-35
2024/04/01 04:09:26;;;;;;;4.88;3.17;;;10.00;99.90;;;;;;5052484;28;20033;-35
2024/04/01 04:11:52;;;;;;;3.63;2.83;;;10.00;99.90;;;;;;5051667;28;20040;-34
2024/04/01 04:14:18;;;;;;;7.57;3.15;;;9.90;99.90;;;;;;5052585;28;20037;-35
2024/04/01 04:16:47;;;;;;;3.25;2.95;;;9.90;99.90;;;;;;5053364;28;20064;-35
2024/04/01 04:19:17;;;;;;;4.35;3.08;;;9.80;99.90;;;;;;5052668;28;20523;-35
2024/04/01 04:21:43;;;;;;;3.60;2.72;;;9.80;99.90;;;;;;5052472;28;20553;-36
2024/04/01 04:24:13;;;;;;;4.85;2.55;;;9.80;99.90;;;;;;5052299;28;20064;-50
2024/04/01 04:26:39;;;;;;;3.70;2.97;;;9.80;99.90;;;;;;5052789;28;20489;-49
2024/04/01 04:29:05;;;;;;;3.28;2.78;;;9.80;99.90;;;;;;5052493;28;20099;-52
2024/04/01 04:31:31;;;;;;;3.30;2.38;;;9.70;99.90;;;;;;5052330;28;20389;-50
2024/04/01 04:33:57;;;;;;;3.67;2.80;;;9.70;99.90;;;;;;5052456;28;20025;-48
2024/04/01 04:36:23;;;;;;;3.38;2.50;;;9.70;99.90;;;;;;5051207;28;20017;-45
2024/04/01 04:38:49;;;;;;;3.28;2.85;;;9.70;99.90;;;;;;5044808;28;20028;-51
2024/04/01 04:41:17;;;;;;;3.60;3.00;;;9.70;99.90;;;;;;5036118;28;20029;-50
2024/04/01 04:43:46;;;;;;;4.95;2.15;;;9.80;99.90;;;;;;5032697;28;20520;-52
2024/04/01 04:46:15;;;;;;;5.90;3.08;;;9.80;99.90;;;;;;5046050;28;20029;-50
2024/04/01 04:48:42;;;;;;;5.90;2.88;;;9.80;99.90;;;;;;5052404;28;20537;-34
2024/04/01 04:51:08;;;;;;;7.25;2.83;;;9.80;99.90;;;;;;5052165;28;20029;-36
2024/04/01 04:53:35;;;;;;;3.03;2.58;;;9.80;99.90;;;;;;5052223;28;20033;-36
2024/04/01 04:56:01;;;;;;;3.88;2.85;;;9.80;99.90;;;;;;5052009;28;20033;-51
2024/04/01 04:58:26;;;;;;;3.33;2.60;;;9.70;99.90;;;;;;5044277;28;20083;-49
2024/04/01 05:00:52;;;;;;;2.50;2.30;;;9.60;99.90;;;;;;5041500;28;20362;-51
2024/04/01 05:03:18;;;;;;;2.70;2.47;;;9.60;99.90;;;;;;5052394;28;20037;-51
2024/04/01 05:05:44;;;;;;;8.52;2.65;;;9.70;99.90;;;;;;5052101;28;20069;-52
2024/04/01 05:08:10;;;;;;;8.35;3.40;;;9.70;99.90;;;;;;5052064;28;20028;-52
2024/04/01 05:10:36;;;;;;;3.53;2.30;;;9.70;99.90;;;;;;5050621;28;20029;-52
2024/04/01 05:13:01;;;;;;;3.83;2.90;;;9.60;99.90;;;;;;5050189;28;20091;-48
2024/04/01 05:15:28;;;;;;;3.28;2.97;;;9.70;99.90;;;;;;5051369;28;20074;-52
2024/04/01 05:17:55;;;;;;;3.33;2.58;;;9.70;99.90;;;;;;5052179;28;20451;-52
2024/04/01 05:20:21;;;;;;;4.20;2.70;;;9.70;99.90;;;;;;5038281;28;20132;-52
2024/04/01 05:22:47;;;;;;;2.70;2.28;;;9.70;99.90;;;;;;5056327;28;20507;-52
2024/04/01 05:25:13;;;;;;;2.90;2.63;;;9.70;99.90;;;;;;5053323;28;20076;-36
2024/04/01 05:27:38;;;;;;;4.10;2.75;;;9.70;99.90;;;;;;5036291;28;20111;-35
2024/04/01 05:30:11;;;;;;;3.05;2.38;;;9.70;99.90;;;;;;5046617;28;20040;-35
2024/04/01 05:32:38;;;;;;;4.95;2.25;;;9.70;99.90;;;;;;5055705;28;20036;-35
2024/04/01 05:35:05;;;;;;;3.42;2.30;;;9.70;99.90;;;;;;5055763;28;20365;-36
2024/04/01 05:37:35;;;;;;;2.30;2.10;;;9.70;99.90;;;;;;5056078;28;20032;-35
2024/04/01 05:40:01;;;;;;;2.88;2.30;;;9.70;99.90;;;;;;5055847;28;20274;-35
2024/04/01 05:42:27;;;;;;;4.40;2.25;;;9.70;99.90;;;;;;5055878;28;20477;-35
2024/04/01 05:44:53;;;;;;;3.60;2.15;;;9.80;99.90;;;;;;5055151;28;20504;-52
2024/04/01 05:47:18;;;;;;;5.90;2.83;;;9.80;99.90;;;;;;5055322;28;20056;-52
2024/04/01 05:49:44;;;;;;;4.65;3.13;;;9.90;99.90;;;;;;5055372;28;20389;-52
2024/04/01 05:52:10;;;;;;;5.95;2.50;;;9.90;99.90;;;;;;5055434;28;20031;-51
2024/04/01 05:54:35;;;;;;;2.95;2.35;;;9.90;99.90;;;;;;5055697;28;20553;-57
2024/04/01 05:57:01;;;;;;;5.28;2.38;;;9.90;99.90;;;;;;5055040;28;20029;-48
2024/04/01 05:59:28;;;;;;;4.50;2.55;;;9.80;99.90;;;;;;5055367;28;20025;-49
2024/04/01 06:01:54;;;;;;;2.92;2.42;;;9.80;99.90;;;;;;5053457;28;20428;-50
2024/04/01 06:04:21;;;;;;;2.70;2.40;;;9.90;99.90;;;;;;5055359;28;20550;-52
2024/04/01 06:06:47;;;;;;;5.78;2.60;;;9.90;99.90;;;;;;5053278;28;20420;-52
2024/04/01 06:09:13;;;;;;;2.85;2.42;;;9.90;99.90;;;;;;5055427;28;20325;-48
2024/04/01 06:11:39;;;;;;;2.40;2.20;;;10.00;99.90;;;;;;5055245;28;20469;-51
2024/04/01 06:14:05;;;;;;;3.63;2.83;;;9.90;99.90;;;;;;5055289;28;20021;-47
2024/04/01 06:16:30;;;;;;;4.65;3.10;;;9.90;99.90;;;;;;5054780;28;20021;-49
2024/04/01 06:18:56;;;;;;;6.47;3.20;;;10.00;99.90;;;;;;5054905;28;20065;-52
2024/04/01 06:21:22;;;;;;;3.97;2.80;;;10.00;99.90;;;;;;5054316;28;20032;-51
2024/04/01 06:23:48;;;;;;;2.83;2.38;;;10.00;99.90;;;;;;5055033;28;20029;-46
2024/04/01 06:26:14;;;;;;;3.78;2.40;;;10.10;99.90;;;;;;5054388;28;20116;-50
2024/04/01 06:28:39;;;;;;;2.85;2.63;;;10.10;99.90;;;;;;5053219;28;20065;-49
2024/04/01 06:31:05;;;;;;;3.72;2.97;;;10.10;99.90;;;;;;5053194;28;20040;-50
2024/04/01 06:33:33;;;;;;;5.63;2.75;;;10.10;99.90;;;;;;5054418;28;20025;-49
2024/04/01 06:35:59;;;;;;;2.53;2.33;;;10.20;99.90;;;;;;5054762;28;20017;-35
2024/04/01 06:38:25;;;;;;;4.75;2.67;;;10.30;99.90;;;;;;5054651;28;20028;-34
2024/04/01 06:40:50;;;;;;;4.30;3.30;;;10.30;99.90;;;;;;5053892;28;20082;-35
2024/04/01 06:43:16;;;;;;;3.33;2.67;;;10.30;99.90;;;;;;5054657;28;20478;-36
2024/04/01 06:45:54;;;;;;;3.75;2.92;;;10.40;99.90;;;;;;5054325;28;20515;-35
2024/04/01 06:48:20;;;;;;;4.90;3.17;;;10.40;99.90;;;;;;5054729;28;20029;-35
2024/04/01 06:50:46;;;;;;;3.55;3.25;;;10.50;99.90;;;;;;5054011;28;20021;-35
2024/04/01 06:53:11;;;;;;;3.67;3.13;;;10.50;99.90;;;;;;5054469;28;20024;-35
2024/04/01 06:55:37;;;;;;;6.93;3.55;;;10.50;99.90;;;;;;5054017;28;20047;-35
2024/04/01 06:58:03;;;;;;;3.75;2.97;;;10.50;99.90;;;;;;5054208;28;20029;-34
2024/04/01 07:00:30;;;;;;;3.58;2.90;;;10.50;99.90;;;;;;5053904;28;20032;-34
2024/04/01 07:02:56;;;;;;;3.05;2.75;;;10.60;99.90;;;;;;5053478;28;20033;-34
2024/04/01 07:05:21;;;;;;;3.05;2.75;;;10.60;99.90;;;;;;5054214;28;20033;-35
2024/04/01 07:07:47;;;;;;;5.45;3.60;;;10.70;99.90;;;;;;5052951;28;20071;-34
2024/04/01 07:10:12;;;;;;;5.07;2.88;;;10.70;99.90;;;;;;5052163;28;20021;-33
2024/04/01 07:12:38;;;;;;;4.05;3.63;;;10.70;99.90;;;;;;5053850;28;20028;-34
2024/04/01 07:15:04;;;;;;;3.53;3.20;;;10.70;99.90;;;;;;5054039;28;20386;-34
2024/04/01 07:17:30;;;;;;;5.28;3.38;;;10.80;99.90;;;;;;5054096;28;20500;-35
2024/04/01 07:19:55;;;;;;;5.47;3.50;;;10.80;99.90;;;;;;5053041;28;20111;-34
2024/04/01 07:22:21;;;;;;;5.55;3.60;;;10.80;99.90;;;;;;5053833;28;20395;-35
2024/04/01 07:24:47;;;;;;;12.50;3.22;;;10.80;99.90;;;;;;5053876;28;20037;-35
2024/04/01 07:27:12;;;;;;;5.50;3.47;;;10.80;99.90;;;;;;5052211;28;20485;-34
2024/04/01 07:29:38;;;;;;;5.50;4.25;;;10.80;99.90;;;;;;5052787;28;20036;-34
2024/04/01 07:32:04;;;;;;;6.57;4.18;;;10.80;99.90;;;;;;5051769;28;20078;-35
2024/04/01 07:34:29;;;;;;;5.63;4.03;;;10.80;99.90;;;;;;5053690;28;20028;-35
2024/04/01 07:36:55;;;;;;;7.40;4.55;;;10.80;99.90;;;;;;5053503;28;20072;-34
2024/04/01 07:39:21;;;;;;;6.30;4.25;;;10.80;99.90;;;;;;5052869;28;20060;-33
2024/04/01 07:41:46;;;;;;;6.72;4.38;;;10.70;99.90;;;;;;5052530;28;20485;-35
2024/04/01 07:44:12;;;;;;;6.32;4.75;;;10.80;99.90;;;;;;5052963;28;20033;-33
2024/04/01 07:46:37;;;;;;;7.18;4.72;;;10.80;99.90;;;;;;5053101;28;20032;-35
2024/04/01 07:49:03;;;;;;;6.28;4.25;;;10.90;99.90;;;;;;5052389;28;20032;-34
2024/04/01 07:51:29;;;;;;;5.68;4.60;;;10.80;99.90;;;;;;5053244;28;20033;-34
2024/04/01 07:53:56;;;;;;;6.13;4.47;;;10.90;99.90;;;;;;5053177;28;20021;-35
2024/04/01 07:56:23;;;;;;;7.60;4.88;;;10.90;99.90;;;;;;5052808;28;20032;-34
2024/04/01 07:58:49;;;;;;;6.70;4.55;;;10.90;99.90;;;;;;5052703;28;20505;-35
2024/04/01 08:01:15;;;;;;;10.52;4.97;;;10.90;99.90;;;;;;5052146;28;20032;-36
2024/04/01 08:03:40;;;;;;;5.45;4.35;;;10.90;99.90;;;;;;5053106;28;20470;-46
2024/04/01 08:06:06;;;;;;;13.18;4.63;;;10.90;99.90;;;;;;5053424;28;20021;-52
2024/04/01 08:08:31;;;;;;;7.47;4.78;;;11.00;99.90;;;;;;5052787;28;20032;-51
2024/04/01 08:10:57;;;;;;;8.63;5.00;;;11.00;99.90;;;;;;5052885;28;20470;-51
2024/04/01 08:13:23;;;;;;;8.15;4.90;;;11.00;99.90;;;;;;5051425;28;20017;-52
2024/04/01 08:16:03;;;;;;;7.60;4.88;;;11.00;99.90;;;;;;5052642;28;20083;-52
2024/04/01 08:18:29;;;;;;;6.40;4.80;;;11.10;99.90;;;;;;5052791;28;20543;-50
2024/04/01 08:20:56;;;;;;;6.00;4.22;;;11.10;99.90;;;;;;5052492;28;20082;-51
2024/04/01 08:23:24;;;;;;;9.25;5.10;;;11.10;99.90;;;;;;5052656;28;20104;-51
2024/04/01 08:25:50;;;;;;;9.55;4.95;;;11.20;99.90;;;;;;5051271;28;20508;-51
2024/04/01 08:28:17;;;;;;;7.63;4.78;;;11.20;99.90;;;;;;5052563;28;20021;-49
2024/04/01 08:30:42;;;;;;;8.10;4.45;;;11.20;99.90;;;;;;5051323;28;20029;-52
2024/04/01 08:33:08;;;;;;;7.50;4.38;;;11.30;99.90;;;;;;5051022;28;20020;-35
2024/04/01 08:35:34;;;;;;;7.35;4.22;;;11.30;99.90;;;;;;5052559;28;20059;-35
2024/04/01 08:38:00;;;;;;;7.72;4.07;;;11.30;99.90;;;;;;5050111;28;20074;-34
2024/04/01 08:40:30;;;;;;;4.70;3.83;;;11.40;99.90;;;;;;5032438;28;20034;-43
2024/04/01 08:43:01;;;;;;;4.75;3.70;;;11.40;99.90;;;;;;5047243;28;20489;-35
2024/04/01 08:45:28;;;;;;;5.57;4.40;;;11.40;99.90;;;;;;5052773;28;20478;-34
2024/04/01 08:48:02;;;;;;;4.65;4.03;;;11.40;99.90;;;;;;5034367;28;20075;-33
2024/04/01 08:50:35;;;;;;;6.45;4.45;;;11.50;99.90;;;;;;5050963;28;20017;-36
2024/04/01 08:53:12;;;;;;;7.30;4.38;;;11.50;99.90;;;;;;5051911;28;20028;-35
2024/04/01 08:55:37;;;;;;;5.50;3.63;;;11.40;99.90;;;;;;5052561;28;20550;-50
2024/04/01 08:58:04;;;;;;;4.60;3.90;;;11.40;99.90;;;;;;5052035;28;20013;-52
2024/04/01 09:00:30;;;;;;;5.97;3.97;;;11.50;99.90;;;;;;5051446;28;20456;-54
2024/04/01 09:02:57;;;;;;;8.55;4.68;;;11.50;99.90;;;;;;5049545;28;20140;-51
2024/04/01 09:05:23;;;;;;;4.80;3.80;;;11.60;99.90;;;;;;5050459;28;20017;-52
2024/04/01 09:07:49;;;;;;;7.85;4.30;;;11.50;99.90;;;;;;5051629;28;20060;-54
2024/04/01 09:10:19;;;;;;;7.10;4.75;;;11.50;99.90;;;;;;5052203;28;20025;-52
2024/04/01 09:12:45;;;;;;;6.90;4.03;;;11.50;99.90;;;;;;5051464;28;20025;-51
2024/04/01 09:15:12;;;;;;;4.95;4.00;;;11.60;99.90;;;;;;5052257;28;20505;-52
2024/04/01 09:17:38;;;;;;;7.00;4.40;;;11.60;99.90;;;;;;5050682;28;20017;-52
2024/04/01 09:20:05;;;;;;;8.27;3.40;;;11.50;99.90;;;;;;5051702;28;20095;-53
2024/04/01 09:22:33;;;;;;;5.07;3.15;;;11.60;99.90;;;;;;5051531;28;20497;-51
2024/04/01 09:24:59;;;;;;;6.35;3.55;;;11.70;99.90;;;;;;5052138;28;20455;-51
2024/04/01 09:27:25;;;;;;;4.20;3.65;;;11.70;99.90;;;;;;5050802;28;20031;-55
2024/04/01 09:29:51;;;;;;;4.82;3.33;;;11.70;99.90;;;;;;5050649;28;20037;-50
2024/04/01 09:32:18;;;;;;;8.10;4.05;;;11.80;99.90;;;;;;5041979;28;20510;-51
2024/04/01 09:34:44;;;;;;;7.80;3.42;;;11.80;99.90;;;;;;5031970;28;20017;-53
2024/04/01 09:37:10;;;;;;;5.50;4.00;;;11.80;99.90;;;;;;5042749;28;20481;-44
2024/04/01 09:39:38;;;;;;;9.75;3.40;;;11.80;99.90;;;;;;5047788;28;20036;-52
2024/04/01 09:42:07;;;;;;;3.05;2.50;;;11.90;99.90;;;;;;5051959;28;20021;-55
2024/04/01 09:44:34;;;;;;;6.93;3.55;;;12.00;99.90;;;;;;5048925;28;20032;-50
2024/04/01 09:47:00;;;;;;;6.10;3.13;;;12.00;99.90;;;;;;5051992;28;20470;-53
2024/04/01 09:49:27;;;;;;;6.45;2.95;;;12.00;99.90;;;;;;5051455;28;20040;-50
2024/04/01 09:51:54;;;;;;;3.13;2.78;;;12.00;99.90;;;;;;5051612;28;20163;-51
2024/04/01 09:54:19;;;;;;;5.07;3.15;;;12.10;99.90;;;;;;5049855;28;20029;-53
2024/04/01 09:57:19;;;;;;;5.38;3.08;;;12.20;99.90;;;;;;5051397;28;20355;-53
2024/04/01 10:00:03;;;;;;;2.97;2.67;;;12.20;99.90;;;;;;5051399;28;20028;-52
2024/04/01 10:03:05;;;;;;;5.28;3.13;;;12.20;99.90;;;;;;5050075;28;20032;-52
2024/04/01 10:05:54;;;;;;;5.93;2.83;;;12.10;99.90;;;;;;5038702;28;20512;-52
2024/04/01 10:08:58;;;;;;;4.32;3.63;;;12.10;99.90;;;;;;5055049;28;20539;-53
2024/04/01 10:11:56;;;;;;;9.30;3.95;;;12.00;99.90;;;;;;5055302;28;20125;-48
2024/04/01 10:14:42;;;;;;;7.35;4.05;;;12.00;99.90;;;;;;5035105;28;20502;-52
2024/04/01 10:17:32;;;;;;;4.70;3.93;;;12.00;99.90;;;;;;5035165;28;20565;-51
2024/04/01 10:20:30;;;;;;;8.75;3.83;;;12.10;99.90;;;;;;5052642;28;20405;-53
2024/04/01 10:23:45;;;;;;;8.20;3.85;;;12.00;99.90;;;;;;5054481;28;20383;-53
2024/04/01 10:26:37;;;;;;;13.32;4.15;;;12.10;99.90;;;;;;5012423;28;20091;-52
2024/04/01 10:29:27;;;;;;;6.30;3.65;;;12.10;99.90;;;;;;5052825;28;20048;-53
2024/04/01 10:32:20;;;;;;;5.32;3.13;;;12.20;99.90;;;;;;5054295;28;20499;-52
2024/04/01 10:35:37;;;;;;;8.00;3.45;;;12.20;99.90;;;;;;5054112;28;20028;-50
2024/04/01 10:38:12;;;;;;;6.40;3.08;;;12.20;99.90;;;;;;5027733;28;20033;-52
2024/04/01 10:40:47;;;;;;;3.72;3.03;;;12.20;99.90;;;;;;5054607;28;20150;-54
2024/04/01 10:43:25;;;;;;;4.82;3.15;;;12.20;99.90;;;;;;5054553;28;20029;-54
2024/04/01 10:46:22;;;;;;;4.53;3.03;;;12.20;99.90;;;;;;5052957;28;20485;-51
2024/04/01 10:49:15;;;;;;;5.43;3.25;;;12.20;99.90;;;;;;5040184;28;20056;-53
2024/04/01 10:52:24;;;;;;;7.13;2.70;;;12.20;99.90;;;;;;5054614;28;20476;-53
2024/04/01 10:55:02;;;;;;;5.32;3.20;;;12.20;99.90;;;;;;5040614;28;20444;-52
2024/04/01 10:58:05;;;;;;;8.88;3.05;;;12.10;99.90;;;;;;5054384;28;20040;-53
2024/04/01 11:01:09;;;;;;;3.47;2.28;;;12.10;99.90;;;;;;5054146;28;20017;-57
2024/04/01 11:04:19;;;;;;;7.72;2.83;;;12.00;99.90;;;;;;5063865;28;20035;-51
2024/04/01 11:07:09;;;;;;;2.47;1.98;;;12.10;99.90;;;;;;5071868;28;20035;-52
2024/04/01 11:09:45;;;;;;;4.32;2.60;;;12.10;99.90;;;;;;5066158;28;20036;-51
2024/04/01 11:12:37;;;;;;;5.43;2.70;;;12.00;99.90;;;;;;5054006;28;20505;-52
2024/04/01 11:15:08;;;;;;;3.72;2.35;;;12.10;99.90;;;;;;5053743;28;20029;-35
2024/04/01 11:17:34;;;;;;;4.22;2.63;;;12.10;99.90;;;;;;5051916;28;20021;-35
2024/04/01 11:20:39;;;;;;;2.15;1.92;;;12.20;99.90;;;;;;5053679;28;20516;-35
2024/04/01 11:23:36;;;;;;;4.07;2.17;;;12.20;99.90;;;;;;5072541;28;20044;-36
2024/04/01 11:26:43;;;;;;;6.85;1.95;;;12.20;99.90;;;;;;5069820;28;20579;-35
2024/04/01 11:29:12;;;;;;;3.00;1.70;;;12.30;99.90;;;;;;5053316;28;20103;-36
2024/04/01 11:32:00;;;;;;;7.70;2.50;;;12.30;99.90;;;;;;5052211;28;20429;-36
2024/04/01 11:34:39;;;;;;;3.45;1.67;;;12.40;99.90;;;;;;5041746;28;20041;-37
2024/04/01 11:37:13;;;;;;;14.15;2.83;;;12.30;99.90;;;;;;5033674;28;20029;-36
2024/04/01 11:39:47;;;;;;;6.47;2.55;;;12.30;99.90;;;;;;5038140;28;20108;-36
2024/04/01 11:42:15;;;;;;;5.18;2.22;;;12.20;99.90;;;;;;5053434;28;20060;-36
2024/04/01 11:44:44;;;;;;;5.68;2.90;;;12.20;99.90;;;;;;5053259;28;20078;-35
2024/04/01 11:47:11;;;;;;;5.60;2.53;;;12.20;99.90;;;;;;5053524;28;20513;-36
2024/04/01 11:49:40;;;;;;;5.93;2.40;;;12.30;99.90;;;;;;5045425;28;20446;-36
2024/04/01 11:52:14;;;;;;;4.38;2.40;;;12.40;99.90;;;;;;5033274;28;20443;-41
2024/04/01 11:54:40;;;;;;;2.95;2.30;;;12.40;99.90;;;;;;5033401;28;20390;-36
2024/04/01 11:57:05;;;;;;;9.35;2.75;;;12.50;99.90;;;;;;5033337;28;20021;-36
2024/04/01 11:59:32;;;;;;;3.00;2.10;;;12.60;99.90;;;;;;5033112;28;20040;-35
2024/04/01 12:01:58;;;;;;;2.13;1.92;;;12.70;99.90;;;;;;5051805;28;20481;-35
2024/04/01 12:04:25;;;;;;;7.40;3.60;;;12.80;99.90;;;;;;5049975;28;20025;-38
2024/04/01 12:06:52;;;;;;;3.45;2.60;;;12.90;99.90;;;;;;5052795;28;20528;-36
2024/04/01 12:09:18;;;;;;;3.47;2.85;;;12.90;99.90;;;;;;5050691;28;20040;-39
2024/04/01 12:11:46;;;;;;;7.72;2.65;;;12.90;99.90;;;;;;5032835;28;20076;-35
2024/04/01 12:14:12;;;;;;;8.05;2.15;;;13.10;99.90;;;;;;5033284;28;20566;-35
2024/04/01 12:16:38;;;;;;;2.67;2.45;;;13.10;99.90;;;;;;5032858;28;20033;-36
2024/04/01 12:19:06;;;;;;;5.82;2.38;;;13.20;99.90;;;;;;5051923;28;20554;-36
2024/04/01 12:21:33;;;;;;;5.35;2.08;;;13.10;99.90;;;;;;5052537;28;20458;-37
2024/04/01 12:24:00;;;;;;;2.85;1.95;;;13.20;99.90;;;;;;5052536;28;20040;-37
2024/04/01 12:26:36;;;;;;;11.85;2.75;;;13.20;99.90;;;;;;5052481;28;20557;-35
2024/04/01 12:29:01;;;;;;;15.15;2.97;;;13.20;99.90;;;;;;5052264;28;20496;-36
2024/04/01 12:31:27;;;;;;;6.45;2.60;;;13.30;99.90;;;;;;5052497;28;20025;-36
2024/04/01 12:33:53;;;;;;;10.43;4.10;;;13.50;99.90;;;;;;5052264;28;20505;-37
2024/04/01 12:36:19;;;;;;;5.45;2.60;;;13.50;99.90;;;;;;5051032;28;20396;-36
2024/04/01 12:38:46;;;;;;;13.32;2.83;;;13.60;99.90;;;;;;5052694;28;20082;-36
2024/04/01 12:41:19;;;;;;;7.53;1.87;;;13.80;99.90;;;;;;5052200;28;20398;-37
2024/04/01 12:43:46;;;;;;;8.00;1.90;;;13.80;99.90;;;;;;5052361;28;20032;-44
2024/04/01 12:46:15;;;;;;;1.30;1.20;;;13.80;99.90;;;;;;5051374;28;20477;-38
2024/04/01 12:48:41;;;;;;;3.70;1.30;;;13.80;99.90;;;;;;5052203;28;20070;-37
2024/04/01 12:51:07;;;;;;;4.70;2.08;;;13.90;99.90;;;;;;5035521;28;20032;-37
2024/04/01 12:53:42;;;;;;;3.78;1.70;;;14.00;99.90;;;;;;5052247;28;20050;-36
2024/04/01 12:56:42;;;;;;;8.93;1.90;;;14.00;99.90;;;;;;5052108;28;20025;-41
2024/04/01 12:59:39;;;;;;;6.07;1.90;;;13.90;99.90;;;;;;5052322;28;20025;-37